sensor_id;sensor_type;location;lat;lon;timestamp;pressure;altitude;pressure_sealevel;temperature;humidity
13732;BME280;6937;56.096;12.664;2023-05-19T00:00:43;102675.22;;;7.94;100.00
13732;BME280;6937;56.096;12.664;2023-05-19T00:03:09;102673.31;;;7.97;100.00
13732;BME280;6937;56.096;12.664;2023-05-19T00:05:38;102681.09;;;8.03;100.00
13732;BME280;6937;56.096;12.664;2023-05-19T00:08:10;102682.03;;;8.02;100.00
13732;BME280;6937;56.096;12.664;2023-05-19T00:10:37;102685.66;;;8.00;100.00
13732;BME280;6937;56.096;12.664;2023-05-19T00:13:03;102692.19;;;7.90;100.00
13732;BME280;6937;56.096;12.664;2023-05-19T00:15:29;102693.75;;;7.67;100.00
13732;BME280;6937;56.096;12.664;2023-05-19T00:17:54;102701.78;;;7.66;100.00
13732;BME280;6937;56.096;12.664;2023-05-19T00:20:21;102685.00;;;7.64;100.00
13732;BME280;6937;56.096;12.664;2023-05-19T00:22:46;102696.53;;;7.64;100.00
13732;BME280;6937;56.096;12.664;2023-05-19T00:25:12;102690.69;;;7.50;100.00
13732;BME280;6937;56.096;12.664;2023-05-19T00:27:37;102681.94;;;7.47;100.00
13732;BME280;6937;56.096;12.664;2023-05-19T00:30:03;102690.84;;;7.46;100.00
13732;BME280;6937;56.096;12.664;2023-05-19T00:32:29;102685.53;;;7.46;100.00
13732;BME280;6937;56.096;12.664;2023-05-19T00:34:55;102685.47;;;7.47;100.00
13732;BME280;6937;56.096;12.664;2023-05-19T00:37:20;102690.00;;;7.44;100.00
13732;BME280;6937;56.096;12.664;2023-05-19T00:39:47;102677.94;;;7.32;100.00
13732;BME280;6937;56.096;12.664;2023-05-19T00:42:13;102686.19;;;7.23;100.00
13732;BME280;6937;56.096;12.664;2023-05-19T00:44:39;102683.66;;;7.17;100.00
13732;BME280;6937;56.096;12.664;2023-05-19T00:47:06;102689.06;;;7.15;100.00
13732;BME280;6937;56.096;12.664;2023-05-19T00:49:31;102693.63;;;7.10;100.00
13732;BME280;6937;56.096;12.664;2023-05-19T00:51:56;102689.47;;;7.00;100.00
13732;BME280;6937;56.096;12.664;2023-05-19T00:54:23;102692.22;;;6.97;100.00
13732;BME280;6937;56.096;12.664;2023-05-19T00:56:49;102699.13;;;7.03;100.00
13732;BME280;6937;56.096;12.664;2023-05-19T00:59:15;102699.00;;;7.07;100.00
13732;BME280;6937;56.096;12.664;2023-05-19T01:01:41;102698.91;;;7.12;100.00
13732;BME280;6937;56.096;12.664;2023-05-19T01:04:07;102689.88;;;7.17;100.00
13732;BME280;6937;56.096;12.664;2023-05-19T01:06:35;102694.97;;;7.25;100.00
13732;BME280;6937;56.096;12.664;2023-05-19T01:09:03;102688.63;;;7.31;100.00
13732;BME280;6937;56.096;12.664;2023-05-19T01:11:29;102691.28;;;7.31;100.00
13732;BME280;6937;56.096;12.664;2023-05-19T01:13:55;102692.13;;;7.31;100.00
13732;BME280;6937;56.096;12.664;2023-05-19T01:16:32;102689.78;;;7.20;100.00
13732;BME280;6937;56.096;12.664;2023-05-19T01:19:42;102683.09;;;7.06;100.00
13732;BME280;6937;56.096;12.664;2023-05-19T01:30:54;102686.06;;;6.94;100.00
13732;BME280;6937;56.096;12.664;2023-05-19T01:33:22;102687.03;;;6.91;100.00
13732;BME280;6937;56.096;12.664;2023-05-19T01:35:49;102688.91;;;6.88;100.00
13732;BME280;6937;56.096;12.664;2023-05-19T01:38:16;102684.78;;;6.76;100.00
13732;BME280;6937;56.096;12.664;2023-05-19T01:40:44;102691.25;;;6.66;100.00
13732;BME280;6937;56.096;12.664;2023-05-19T01:43:17;102684.25;;;6.62;100.00
13732;BME280;6937;56.096;12.664;2023-05-19T01:45:43;102687.75;;;6.64;100.00
13732;BME280;6937;56.096;12.664;2023-05-19T01:48:09;102693.91;;;6.66;100.00
13732;BME280;6937;56.096;12.664;2023-05-19T01:50:37;102691.53;;;6.55;100.00
13732;BME280;6937;56.096;12.664;2023-05-19T01:53:02;102691.91;;;6.40;100.00
13732;BME280;6937;56.096;12.664;2023-05-19T01:55:28;102689.44;;;6.32;100.00
13732;BME280;6937;56.096;12.664;2023-05-19T02:09:47;102685.22;;;6.22;100.00
13732;BME280;6937;56.096;12.664;2023-05-19T02:14:31;102686.00;;;6.27;100.00
13732;BME280;6937;56.096;12.664;2023-05-19T02:16:59;102690.53;;;6.22;100.00
13732;BME280;6937;56.096;12.664;2023-05-19T02:19:27;102676.59;;;6.14;100.00
13732;BME280;6937;56.096;12.664;2023-05-19T02:21:53;102678.38;;;6.14;100.00
13732;BME280;6937;56.096;12.664;2023-05-19T02:24:19;102665.97;;;6.14;100.00
13732;BME280;6937;56.096;12.664;2023-05-19T02:26:47;102671.22;;;6.17;100.00
13732;BME280;6937;56.096;12.664;2023-05-19T02:29:12;102673.69;;;6.23;100.00
13732;BME280;6937;56.096;12.664;2023-05-19T02:31:38;102668.38;;;6.23;100.00
13732;BME280;6937;56.096;12.664;2023-05-19T02:34:03;102678.13;;;6.23;100.00
13732;BME280;6937;56.096;12.664;2023-05-19T02:36:32;102676.34;;;6.25;100.00
13732;BME280;6937;56.096;12.664;2023-05-19T02:38:59;102663.19;;;6.19;100.00
13732;BME280;6937;56.096;12.664;2023-05-19T02:41:26;102667.75;;;6.14;100.00
13732;BME280;6937;56.096;12.664;2023-05-19T02:43:52;102669.53;;;6.13;100.00
13732;BME280;6937;56.096;12.664;2023-05-19T02:46:17;102668.66;;;6.13;100.00
13732;BME280;6937;56.096;12.664;2023-05-19T02:48:43;102672.13;;;6.15;100.00
13732;BME280;6937;56.096;12.664;2023-05-19T02:51:08;102670.31;;;6.18;100.00
13732;BME280;6937;56.096;12.664;2023-05-19T02:53:34;102665.03;;;6.15;100.00
13732;BME280;6937;56.096;12.664;2023-05-19T02:56:00;102670.44;;;6.12;100.00
13732;BME280;6937;56.096;12.664;2023-05-19T02:58:26;102669.72;;;6.06;100.00
13732;BME280;6937;56.096;12.664;2023-05-19T03:00:51;102665.44;;;5.99;100.00
13732;BME280;6937;56.096;12.664;2023-05-19T03:03:17;102665.47;;;5.97;100.00
13732;BME280;6937;56.096;12.664;2023-05-19T03:05:42;102669.88;;;5.98;100.00
13732;BME280;6937;56.096;12.664;2023-05-19T03:08:08;102669.00;;;5.98;100.00
13732;BME280;6937;56.096;12.664;2023-05-19T03:10:34;102668.09;;;5.99;100.00
13732;BME280;6937;56.096;12.664;2023-05-19T03:12:59;102662.88;;;5.96;100.00
13732;BME280;6937;56.096;12.664;2023-05-19T03:15:25;102661.25;;;5.89;100.00
13732;BME280;6937;56.096;12.664;2023-05-19T03:17:50;102663.88;;;5.90;100.00
13732;BME280;6937;56.096;12.664;2023-05-19T03:20:16;102661.19;;;5.92;100.00
13732;BME280;6937;56.096;12.664;2023-05-19T03:22:42;102656.78;;;5.91;100.00
13732;BME280;6937;56.096;12.664;2023-05-19T03:25:08;102657.75;;;5.85;100.00
13732;BME280;6937;56.096;12.664;2023-05-19T03:27:34;102659.69;;;5.78;100.00
13732;BME280;6937;56.096;12.664;2023-05-19T03:29:59;102659.84;;;5.71;100.00
13732;BME280;6937;56.096;12.664;2023-05-19T03:32:25;102659.91;;;5.68;100.00
13732;BME280;6937;56.096;12.664;2023-05-19T03:34:50;102662.41;;;5.74;100.00
13732;BME280;6937;56.096;12.664;2023-05-19T03:37:16;102655.25;;;5.79;100.00
13732;BME280;6937;56.096;12.664;2023-05-19T03:39:41;102658.63;;;5.85;100.00
13732;BME280;6937;56.096;12.664;2023-05-19T03:42:07;102658.41;;;5.96;100.00
13732;BME280;6937;56.096;12.664;2023-05-19T03:44:32;102661.91;;;5.98;100.00
13732;BME280;6937;56.096;12.664;2023-05-19T03:46:57;102666.28;;;6.01;100.00
13732;BME280;6937;56.096;12.664;2023-05-19T03:49:23;102663.69;;;5.99;100.00
13732;BME280;6937;56.096;12.664;2023-05-19T03:51:48;102667.94;;;6.06;100.00
13732;BME280;6937;56.096;12.664;2023-05-19T03:54:13;102672.19;;;6.12;100.00
13732;BME280;6937;56.096;12.664;2023-05-19T03:56:40;102668.50;;;6.19;100.00
13732;BME280;6937;56.096;12.664;2023-05-19T03:59:06;102670.88;;;6.31;100.00
13732;BME280;6937;56.096;12.664;2023-05-19T04:01:32;102670.53;;;6.45;100.00
13732;BME280;6937;56.096;12.664;2023-05-19T04:03:57;102663.28;;;6.51;100.00
13732;BME280;6937;56.096;12.664;2023-05-19T04:06:23;102678.97;;;6.60;100.00
13732;BME280;6937;56.096;12.664;2023-05-19T04:08:48;102673.47;;;6.68;100.00
13732;BME280;6937;56.096;12.664;2023-05-19T04:11:14;102669.00;;;6.70;100.00
13732;BME280;6937;56.096;12.664;2023-05-19T04:13:39;102668.75;;;6.79;100.00
13732;BME280;6937;56.096;12.664;2023-05-19T04:16:05;102675.50;;;6.92;100.00
13732;BME280;6937;56.096;12.664;2023-05-19T04:18:31;102670.84;;;7.00;100.00
13732;BME280;6937;56.096;12.664;2023-05-19T04:20:56;102673.25;;;7.09;100.00
13732;BME280;6937;56.096;12.664;2023-05-19T04:23:22;102672.13;;;7.18;100.00
13732;BME280;6937;56.096;12.664;2023-05-19T04:25:47;102671.09;;;7.23;100.00
13732;BME280;6937;56.096;12.664;2023-05-19T04:28:13;102672.69;;;7.29;100.00
13732;BME280;6937;56.096;12.664;2023-05-19T04:30:39;102672.44;;;7.38;100.00
13732;BME280;6937;56.096;12.664;2023-05-19T04:33:04;102661.44;;;7.50;100.00
13732;BME280;6937;56.096;12.664;2023-05-19T04:35:31;102665.53;;;7.62;100.00
13732;BME280;6937;56.096;12.664;2023-05-19T04:37:57;102658.19;;;7.70;100.00
13732;BME280;6937;56.096;12.664;2023-05-19T04:40:22;102662.31;;;7.80;100.00
13732;BME280;6937;56.096;12.664;2023-05-19T04:42:49;102663.81;;;7.89;100.00
13732;BME280;6937;56.096;12.664;2023-05-19T04:45:16;102659.81;;;8.03;100.00
13732;BME280;6937;56.096;12.664;2023-05-19T04:47:42;102660.53;;;8.08;100.00
13732;BME280;6937;56.096;12.664;2023-05-19T04:50:08;102661.97;;;8.18;100.00
13732;BME280;6937;56.096;12.664;2023-05-19T04:52:35;102648.38;;;8.27;100.00
13732;BME280;6937;56.096;12.664;2023-05-19T04:55:00;102654.16;;;8.42;100.00
13732;BME280;6937;56.096;12.664;2023-05-19T04:57:25;102656.41;;;8.54;100.00
13732;BME280;6937;56.096;12.664;2023-05-19T04:59:51;102639.19;;;8.64;100.00
13732;BME280;6937;56.096;12.664;2023-05-19T05:02:17;102646.88;;;8.73;100.00
13732;BME280;6937;56.096;12.664;2023-05-19T05:04:42;102642.31;;;8.77;100.00
13732;BME280;6937;56.096;12.664;2023-05-19T05:07:08;102638.75;;;8.76;100.00
13732;BME280;6937;56.096;12.664;2023-05-19T05:09:34;102639.38;;;8.84;100.00
13732;BME280;6937;56.096;12.664;2023-05-19T05:12:00;102637.31;;;8.92;100.00
13732;BME280;6937;56.096;12.664;2023-05-19T05:14:26;102631.84;;;8.95;100.00
13732;BME280;6937;56.096;12.664;2023-05-19T05:16:52;102643.94;;;9.05;100.00
13732;BME280;6937;56.096;12.664;2023-05-19T05:19:18;102643.69;;;9.11;100.00
13732;BME280;6937;56.096;12.664;2023-05-19T05:21:43;102646.16;;;9.17;100.00
13732;BME280;6937;56.096;12.664;2023-05-19T05:24:10;102654.63;;;9.29;100.00
13732;BME280;6937;56.096;12.664;2023-05-19T05:26:36;102647.38;;;9.32;100.00
13732;BME280;6937;56.096;12.664;2023-05-19T05:29:02;102646.22;;;9.39;100.00
13732;BME280;6937;56.096;12.664;2023-05-19T05:31:28;102648.56;;;9.48;100.00
13732;BME280;6937;56.096;12.664;2023-05-19T05:33:53;102649.38;;;9.50;100.00
13732;BME280;6937;56.096;12.664;2023-05-19T05:36:18;102642.84;;;9.57;100.00
13732;BME280;6937;56.096;12.664;2023-05-19T05:38:44;102648.81;;;9.64;100.00
13732;BME280;6937;56.096;12.664;2023-05-19T05:41:09;102646.88;;;9.69;100.00
13732;BME280;6937;56.096;12.664;2023-05-19T05:43:35;102651.94;;;9.75;100.00
13732;BME280;6937;56.096;12.664;2023-05-19T05:46:00;102653.53;;;9.81;100.00
13732;BME280;6937;56.096;12.664;2023-05-19T05:48:26;102658.75;;;9.84;100.00
13732;BME280;6937;56.096;12.664;2023-05-19T05:50:52;102661.16;;;9.90;100.00
13732;BME280;6937;56.096;12.664;2023-05-19T05:53:19;102660.88;;;9.97;100.00
13732;BME280;6937;56.096;12.664;2023-05-19T05:55:46;102668.56;;;10.05;100.00
13732;BME280;6937;56.096;12.664;2023-05-19T05:58:12;102676.38;;;10.11;100.00
13732;BME280;6937;56.096;12.664;2023-05-19T06:00:40;102669.69;;;10.23;100.00
13732;BME280;6937;56.096;12.664;2023-05-19T06:03:10;102675.59;;;10.31;100.00
13732;BME280;6937;56.096;12.664;2023-05-19T06:05:36;102678.88;;;10.37;100.00
13732;BME280;6937;56.096;12.664;2023-05-19T06:08:01;102681.13;;;10.48;100.00
13732;BME280;6937;56.096;12.664;2023-05-19T06:10:27;102689.09;;;10.49;100.00
13732;BME280;6937;56.096;12.664;2023-05-19T06:12:53;102686.19;;;10.54;100.00
13732;BME280;6937;56.096;12.664;2023-05-19T06:15:20;102696.06;;;10.53;100.00
13732;BME280;6937;56.096;12.664;2023-05-19T06:17:45;102705.75;;;10.56;100.00
13732;BME280;6937;56.096;12.664;2023-05-19T06:20:11;102709.91;;;10.63;100.00
13732;BME280;6937;56.096;12.664;2023-05-19T06:22:37;102722.81;;;10.74;100.00
13732;BME280;6937;56.096;12.664;2023-05-19T06:25:02;102725.66;;;10.69;100.00
13732;BME280;6937;56.096;12.664;2023-05-19T06:27:28;102736.94;;;10.77;100.00
13732;BME280;6937;56.096;12.664;2023-05-19T06:29:53;102723.50;;;10.79;100.00
13732;BME280;6937;56.096;12.664;2023-05-19T06:32:19;102731.22;;;10.86;100.00
13732;BME280;6937;56.096;12.664;2023-05-19T06:34:45;102734.44;;;10.94;100.00
13732;BME280;6937;56.096;12.664;2023-05-19T06:37:11;102728.94;;;10.97;100.00
13732;BME280;6937;56.096;12.664;2023-05-19T06:39:38;102728.81;;;11.00;100.00
13732;BME280;6937;56.096;12.664;2023-05-19T06:42:04;102726.19;;;10.99;100.00
13732;BME280;6937;56.096;12.664;2023-05-19T06:44:30;102724.34;;;11.01;100.00
13732;BME280;6937;56.096;12.664;2023-05-19T06:46:55;102719.72;;;11.04;100.00
13732;BME280;6937;56.096;12.664;2023-05-19T06:49:20;102725.28;;;11.20;100.00
13732;BME280;6937;56.096;12.664;2023-05-19T06:51:46;102729.63;;;11.23;100.00
13732;BME280;6937;56.096;12.664;2023-05-19T06:54:11;102726.75;;;11.27;100.00
13732;BME280;6937;56.096;12.664;2023-05-19T06:56:40;102719.25;;;11.35;100.00
13732;BME280;6937;56.096;12.664;2023-05-19T06:59:05;102725.72;;;11.30;100.00
13732;BME280;6937;56.096;12.664;2023-05-19T07:01:31;102728.22;;;11.34;100.00
13732;BME280;6937;56.096;12.664;2023-05-19T07:03:56;102725.38;;;11.37;100.00
13732;BME280;6937;56.096;12.664;2023-05-19T07:06:21;102734.75;;;11.47;100.00
13732;BME280;6937;56.096;12.664;2023-05-19T07:08:47;102738.81;;;11.56;100.00
13732;BME280;6937;56.096;12.664;2023-05-19T07:11:12;102743.78;;;11.65;100.00
13732;BME280;6937;56.096;12.664;2023-05-19T07:13:38;102739.94;;;11.71;100.00
13732;BME280;6937;56.096;12.664;2023-05-19T07:16:03;102739.28;;;11.86;100.00
13732;BME280;6937;56.096;12.664;2023-05-19T07:18:29;102750.66;;;11.91;100.00
13732;BME280;6937;56.096;12.664;2023-05-19T07:20:57;102750.91;;;11.85;100.00
13732;BME280;6937;56.096;12.664;2023-05-19T07:23:23;102753.47;;;11.88;100.00
13732;BME280;6937;56.096;12.664;2023-05-19T07:25:48;102756.75;;;11.94;100.00
13732;BME280;6937;56.096;12.664;2023-05-19T07:28:14;102762.81;;;11.98;100.00
13732;BME280;6937;56.096;12.664;2023-05-19T07:30:39;102756.19;;;12.06;100.00
13732;BME280;6937;56.096;12.664;2023-05-19T07:33:04;102760.22;;;12.15;100.00
13732;BME280;6937;56.096;12.664;2023-05-19T07:35:31;102762.53;;;12.23;100.00
13732;BME280;6937;56.096;12.664;2023-05-19T07:37:56;102765.22;;;12.41;100.00
13732;BME280;6937;56.096;12.664;2023-05-19T07:40:21;102766.75;;;12.47;100.00
13732;BME280;6937;56.096;12.664;2023-05-19T07:42:48;102765.19;;;12.60;100.00
13732;BME280;6937;56.096;12.664;2023-05-19T07:45:14;102776.00;;;12.58;100.00
13732;BME280;6937;56.096;12.664;2023-05-19T07:47:40;102779.06;;;12.51;100.00
13732;BME280;6937;56.096;12.664;2023-05-19T07:50:05;102787.53;;;12.42;100.00
13732;BME280;6937;56.096;12.664;2023-05-19T07:52:31;102783.97;;;12.41;100.00
13732;BME280;6937;56.096;12.664;2023-05-19T07:54:57;102790.66;;;12.51;100.00
13732;BME280;6937;56.096;12.664;2023-05-19T07:57:23;102787.63;;;12.59;100.00
13732;BME280;6937;56.096;12.664;2023-05-19T07:59:48;102781.50;;;12.74;100.00
13732;BME280;6937;56.096;12.664;2023-05-19T08:02:14;102797.84;;;12.87;100.00
13732;BME280;6937;56.096;12.664;2023-05-19T08:04:40;102796.25;;;12.83;100.00
13732;BME280;6937;56.096;12.664;2023-05-19T08:07:05;102804.91;;;12.89;100.00
13732;BME280;6937;56.096;12.664;2023-05-19T08:09:30;102806.88;;;13.03;100.00
13732;BME280;6937;56.096;12.664;2023-05-19T08:11:56;102818.38;;;13.24;100.00
13732;BME280;6937;56.096;12.664;2023-05-19T08:14:21;102816.28;;;13.30;100.00
13732;BME280;6937;56.096;12.664;2023-05-19T08:16:48;102816.59;;;13.41;100.00
13732;BME280;6937;56.096;12.664;2023-05-19T08:19:13;102821.31;;;13.53;100.00
13732;BME280;6937;56.096;12.664;2023-05-19T08:21:39;102831.13;;;13.72;100.00
13732;BME280;6937;56.096;12.664;2023-05-19T08:24:07;102834.72;;;13.88;100.00
13732;BME280;6937;56.096;12.664;2023-05-19T08:26:32;102841.25;;;13.99;100.00
13732;BME280;6937;56.096;12.664;2023-05-19T08:28:58;102846.75;;;13.98;100.00
13732;BME280;6937;56.096;12.664;2023-05-19T08:31:23;102853.53;;;13.88;100.00
13732;BME280;6937;56.096;12.664;2023-05-19T08:33:49;102863.28;;;13.90;100.00
13732;BME280;6937;56.096;12.664;2023-05-19T08:36:15;102872.44;;;13.86;100.00
13732;BME280;6937;56.096;12.664;2023-05-19T08:38:40;102881.13;;;13.91;100.00
13732;BME280;6937;56.096;12.664;2023-05-19T08:41:05;102885.09;;;14.01;100.00
13732;BME280;6937;56.096;12.664;2023-05-19T08:43:31;102895.81;;;14.19;100.00
13732;BME280;6937;56.096;12.664;2023-05-19T08:45:58;102887.31;;;14.26;100.00
13732;BME280;6937;56.096;12.664;2023-05-19T08:48:23;102903.28;;;14.29;100.00
13732;BME280;6937;56.096;12.664;2023-05-19T08:51:18;102903.00;;;14.35;100.00
13732;BME280;6937;56.096;12.664;2023-05-19T08:53:50;102902.84;;;14.38;100.00
13732;BME280;6937;56.096;12.664;2023-05-19T08:56:20;102908.56;;;14.48;100.00
13732;BME280;6937;56.096;12.664;2023-05-19T08:58:48;102899.38;;;14.52;100.00
13732;BME280;6937;56.096;12.664;2023-05-19T09:01:14;102910.66;;;14.59;100.00
13732;BME280;6937;56.096;12.664;2023-05-19T09:03:42;102913.22;;;14.62;100.00
13732;BME280;6937;56.096;12.664;2023-05-19T09:06:07;102913.78;;;14.35;100.00
13732;BME280;6937;56.096;12.664;2023-05-19T09:08:33;102916.06;;;14.43;100.00
13732;BME280;6937;56.096;12.664;2023-05-19T09:11:00;102925.41;;;14.51;100.00
13732;BME280;6937;56.096;12.664;2023-05-19T09:13:25;102927.13;;;14.37;100.00
13732;BME280;6937;56.096;12.664;2023-05-19T09:15:52;102928.38;;;14.30;100.00
13732;BME280;6937;56.096;12.664;2023-05-19T09:18:17;102921.41;;;14.26;100.00
13732;BME280;6937;56.096;12.664;2023-05-19T09:20:44;102920.00;;;14.36;100.00
13732;BME280;6937;56.096;12.664;2023-05-19T09:23:14;102914.13;;;14.45;100.00
13732;BME280;6937;56.096;12.664;2023-05-19T09:25:51;102910.50;;;14.46;100.00
13732;BME280;6937;56.096;12.664;2023-05-19T09:28:30;102911.81;;;14.55;100.00
13732;BME280;6937;56.096;12.664;2023-05-19T09:33:29;102916.06;;;14.43;100.00
13732;BME280;6937;56.096;12.664;2023-05-19T09:35:55;102919.13;;;14.68;100.00
13732;BME280;6937;56.096;12.664;2023-05-19T09:38:23;102918.34;;;14.82;100.00
13732;BME280;6937;56.096;12.664;2023-05-19T09:40:49;102926.84;;;14.74;100.00
13732;BME280;6937;56.096;12.664;2023-05-19T09:43:15;102916.09;;;14.74;100.00
13732;BME280;6937;56.096;12.664;2023-05-19T09:45:41;102916.47;;;14.84;100.00
13732;BME280;6937;56.096;12.664;2023-05-19T09:48:06;102925.06;;;14.90;100.00
13732;BME280;6937;56.096;12.664;2023-05-19T09:50:32;102927.03;;;14.87;100.00
13732;BME280;6937;56.096;12.664;2023-05-19T09:52:58;102913.91;;;14.96;100.00
13732;BME280;6937;56.096;12.664;2023-05-19T09:55:25;102912.53;;;15.05;100.00
13732;BME280;6937;56.096;12.664;2023-05-19T09:57:53;102906.28;;;15.05;100.00
13732;BME280;6937;56.096;12.664;2023-05-19T10:00:20;102914.09;;;14.93;100.00
13732;BME280;6937;56.096;12.664;2023-05-19T10:02:47;102903.94;;;15.14;100.00
13732;BME280;6937;56.096;12.664;2023-05-19T10:05:17;102911.41;;;15.25;100.00
13732;BME280;6937;56.096;12.664;2023-05-19T10:07:53;102899.84;;;15.23;100.00
13732;BME280;6937;56.096;12.664;2023-05-19T10:10:20;102894.16;;;15.43;100.00
13732;BME280;6937;56.096;12.664;2023-05-19T10:12:47;102900.25;;;15.62;100.00
13732;BME280;6937;56.096;12.664;2023-05-19T10:15:15;102895.34;;;15.69;100.00
13732;BME280;6937;56.096;12.664;2023-05-19T10:17:42;102900.72;;;15.69;100.00
13732;BME280;6937;56.096;12.664;2023-05-19T10:20:13;102899.16;;;15.94;100.00
13732;BME280;6937;56.096;12.664;2023-05-19T10:22:40;102890.84;;;15.83;100.00
13732;BME280;6937;56.096;12.664;2023-05-19T10:25:07;102889.00;;;15.70;100.00
13732;BME280;6937;56.096;12.664;2023-05-19T10:27:35;102893.06;;;15.77;100.00
13732;BME280;6937;56.096;12.664;2023-05-19T10:30:11;102888.53;;;15.77;100.00
13732;BME280;6937;56.096;12.664;2023-05-19T10:32:40;102892.88;;;15.50;100.00
13732;BME280;6937;56.096;12.664;2023-05-19T10:40:36;102881.19;;;15.65;100.00
13732;BME280;6937;56.096;12.664;2023-05-19T10:43:27;102874.41;;;15.58;100.00
13732;BME280;6937;56.096;12.664;2023-05-19T10:45:56;102880.91;;;15.70;100.00
13732;BME280;6937;56.096;12.664;2023-05-19T10:48:22;102881.47;;;15.75;100.00
13732;BME280;6937;56.096;12.664;2023-05-19T10:50:48;102867.91;;;15.76;100.00
13732;BME280;6937;56.096;12.664;2023-05-19T10:53:17;102875.00;;;15.93;100.00
13732;BME280;6937;56.096;12.664;2023-05-19T10:55:52;102873.72;;;15.99;100.00
13732;BME280;6937;56.096;12.664;2023-05-19T11:01:12;102859.09;;;16.31;100.00
13732;BME280;6937;56.096;12.664;2023-05-19T11:03:52;102863.34;;;16.21;100.00
13732;BME280;6937;56.096;12.664;2023-05-19T11:06:31;102862.00;;;16.42;100.00
13732;BME280;6937;56.096;12.664;2023-05-19T11:09:08;102866.50;;;16.56;100.00
13732;BME280;6937;56.096;12.664;2023-05-19T11:11:48;102864.78;;;16.69;100.00
13732;BME280;6937;56.096;12.664;2023-05-19T11:14:17;102862.94;;;16.69;100.00
13732;BME280;6937;56.096;12.664;2023-05-19T11:16:45;102865.72;;;16.82;100.00
13732;BME280;6937;56.096;12.664;2023-05-19T11:19:31;102865.56;;;16.71;100.00
13732;BME280;6937;56.096;12.664;2023-05-19T11:22:17;102856.41;;;16.59;100.00
13732;BME280;6937;56.096;12.664;2023-05-19T11:24:46;102861.41;;;16.65;100.00
13732;BME280;6937;56.096;12.664;2023-05-19T11:27:21;102859.75;;;16.77;100.00
13732;BME280;6937;56.096;12.664;2023-05-19T11:29:48;102871.03;;;16.69;100.00
13732;BME280;6937;56.096;12.664;2023-05-19T11:32:15;102862.56;;;16.61;100.00
13732;BME280;6937;56.096;12.664;2023-05-19T11:34:43;102861.69;;;16.75;100.00
13732;BME280;6937;56.096;12.664;2023-05-19T11:37:08;102865.16;;;16.77;100.00
13732;BME280;6937;56.096;12.664;2023-05-19T11:39:34;102865.59;;;16.83;100.00
13732;BME280;6937;56.096;12.664;2023-05-19T11:42:00;102860.16;;;16.71;100.00
13732;BME280;6937;56.096;12.664;2023-05-19T11:44:25;102863.59;;;16.87;100.00
13732;BME280;6937;56.096;12.664;2023-05-19T11:46:50;102853.28;;;17.06;100.00
13732;BME280;6937;56.096;12.664;2023-05-19T11:49:16;102850.00;;;17.15;100.00
13732;BME280;6937;56.096;12.664;2023-05-19T11:51:42;102860.13;;;17.12;100.00
13732;BME280;6937;56.096;12.664;2023-05-19T11:54:12;102857.59;;;17.23;100.00
13732;BME280;6937;56.096;12.664;2023-05-19T11:56:41;102849.41;;;17.10;100.00
13732;BME280;6937;56.096;12.664;2023-05-19T11:59:07;102851.94;;;17.13;100.00
13732;BME280;6937;56.096;12.664;2023-05-19T12:01:33;102855.72;;;17.50;100.00
13732;BME280;6937;56.096;12.664;2023-05-19T12:03:59;102858.41;;;17.77;100.00
13732;BME280;6937;56.096;12.664;2023-05-19T12:06:25;102849.53;;;18.13;100.00
13732;BME280;6937;56.096;12.664;2023-05-19T12:08:51;102845.66;;;17.92;100.00
13732;BME280;6937;56.096;12.664;2023-05-19T12:11:18;102852.56;;;17.44;100.00
13732;BME280;6937;56.096;12.664;2023-05-19T12:13:44;102865.31;;;17.42;100.00
13732;BME280;6937;56.096;12.664;2023-05-19T12:16:09;102859.09;;;17.54;100.00
13732;BME280;6937;56.096;12.664;2023-05-19T12:18:36;102856.09;;;17.31;100.00
13732;BME280;6937;56.096;12.664;2023-05-19T12:21:03;102862.94;;;17.10;100.00
13732;BME280;6937;56.096;12.664;2023-05-19T12:23:28;102854.75;;;17.12;100.00
13732;BME280;6937;56.096;12.664;2023-05-19T12:25:56;102860.53;;;17.59;100.00
13732;BME280;6937;56.096;12.664;2023-05-19T12:28:21;102863.94;;;17.49;100.00
13732;BME280;6937;56.096;12.664;2023-05-19T12:30:50;102854.38;;;17.30;100.00
13732;BME280;6937;56.096;12.664;2023-05-19T12:33:17;102864.00;;;17.34;100.00
13732;BME280;6937;56.096;12.664;2023-05-19T12:35:44;102863.50;;;17.42;100.00
13732;BME280;6937;56.096;12.664;2023-05-19T12:38:13;102853.22;;;17.86;100.00
13732;BME280;6937;56.096;12.664;2023-05-19T12:40:38;102864.34;;;18.20;100.00
13732;BME280;6937;56.096;12.664;2023-05-19T12:43:04;102860.00;;;18.43;100.00
13732;BME280;6937;56.096;12.664;2023-05-19T12:45:38;102848.00;;;18.34;100.00
13732;BME280;6937;56.096;12.664;2023-05-19T12:48:05;102853.94;;;18.39;100.00
13732;BME280;6937;56.096;12.664;2023-05-19T12:50:35;102851.25;;;18.52;100.00
13732;BME280;6937;56.096;12.664;2023-05-19T12:53:01;102852.19;;;18.63;100.00
13732;BME280;6937;56.096;12.664;2023-05-19T12:55:27;102851.59;;;18.22;100.00
13732;BME280;6937;56.096;12.664;2023-05-19T12:57:52;102860.34;;;17.88;100.00
13732;BME280;6937;56.096;12.664;2023-05-19T13:00:21;102856.78;;;17.87;100.00
13732;BME280;6937;56.096;12.664;2023-05-19T13:05:33;102853.09;;;18.51;100.00
13732;BME280;6937;56.096;12.664;2023-05-19T13:07:59;102864.97;;;18.74;100.00
13732;BME280;6937;56.096;12.664;2023-05-19T13:10:26;102855.97;;;18.73;100.00
13732;BME280;6937;56.096;12.664;2023-05-19T13:12:56;102843.78;;;18.55;100.00
13732;BME280;6937;56.096;12.664;2023-05-19T13:15:23;102850.72;;;18.09;100.00
13732;BME280;6937;56.096;12.664;2023-05-19T13:17:50;102854.41;;;18.20;100.00
13732;BME280;6937;56.096;12.664;2023-05-19T13:20:16;102850.91;;;18.18;100.00